createdAt,value
2023-03-24T00:00:30.603Z,3.42
2023-03-24T00:03:03.408Z,4.70
2023-03-24T00:05:33.380Z,5.60
2023-03-24T00:08:04.653Z,6.43
2023-03-24T00:10:35.459Z,5.50
2023-03-24T00:13:06.639Z,3.55
2023-03-24T00:15:36.594Z,7.80
2023-03-24T00:18:10.956Z,10.93
2023-03-24T00:20:41.848Z,11.50
2023-03-24T00:23:11.396Z,5.72
2023-03-24T00:25:40.666Z,4.15
2023-03-24T00:28:11.465Z,3.03
2023-03-24T00:30:44.176Z,2.88
2023-03-24T00:33:15.570Z,4.22
2023-03-24T00:35:45.315Z,4.20
2023-03-24T00:38:14.692Z,4.40
2023-03-24T00:40:51.866Z,18.88
2023-03-24T00:43:22.199Z,4.22
2023-03-24T00:45:52.656Z,4.50
2023-03-24T00:48:24.593Z,4.90
2023-03-24T00:50:54.858Z,5.22
2023-03-24T00:53:29.380Z,3.53
2023-03-24T00:56:01.008Z,10.45
2023-03-24T00:58:30.156Z,13.10
2023-03-24T01:01:00.267Z,125.70
2023-03-24T01:03:30.930Z,5.50
2023-03-24T01:06:04.562Z,15.55
2023-03-24T01:08:34.020Z,48.55
2023-03-24T01:11:05.326Z,4.15
2023-03-24T01:13:35.938Z,3.13
2023-03-24T01:16:04.783Z,3.55
2023-03-24T01:18:42.052Z,2.17
2023-03-24T01:21:12.910Z,2.80
2023-03-24T01:23:44.079Z,4.88
2023-03-24T01:26:13.275Z,3.65
2023-03-24T01:28:44.064Z,110.78
2023-03-24T01:31:13.198Z,8.52
2023-03-24T01:33:44.534Z,29.48
2023-03-24T01:36:14.271Z,131.80
2023-03-24T01:38:43.332Z,36.90
2023-03-24T01:41:11.971Z,93.05
2023-03-24T01:43:41.171Z,218.93
2023-03-24T01:46:17.115Z,216.40
2023-03-24T01:48:52.487Z,95.13
2023-03-24T01:51:25.003Z,30.40
2023-03-24T01:53:57.734Z,87.80
2023-03-24T01:56:28.357Z,4.47
2023-03-24T01:59:03.577Z,10.50
2023-03-24T02:01:33.921Z,12.23
2023-03-24T02:04:07.997Z,15.32
2023-03-24T02:09:12.072Z,33.65
2023-03-24T02:11:42.478Z,6.53
2023-03-24T02:14:14.216Z,18.88
2023-03-24T02:17:06.196Z,72.73
2023-03-24T02:20:05.469Z,28.63
2023-03-24T02:23:15.233Z,9.70
2023-03-24T02:26:19.599Z,7.00
2023-03-24T02:28:59.869Z,51.70
2023-03-24T02:31:48.893Z,63.95
2023-03-24T02:34:56.179Z,34.00
2023-03-24T02:37:55.462Z,40.72
2023-03-24T02:40:42.755Z,54.08
2023-03-24T02:43:28.537Z,15.05
2023-03-24T02:46:08.578Z,29.55
2023-03-24T02:48:43.093Z,14.57
2023-03-24T02:51:19.326Z,17.58
2023-03-24T02:53:58.638Z,21.95
2023-03-24T02:56:38.639Z,16.45
2023-03-24T02:59:09.728Z,11.48
2023-03-24T03:01:46.017Z,8.40
2023-03-24T03:04:22.406Z,7.60
2023-03-24T03:06:55.707Z,25.48
2023-03-24T03:09:26.389Z,19.10
2023-03-24T03:12:00.192Z,16.50
2023-03-24T03:14:36.309Z,8.77
2023-03-24T03:17:09.860Z,5.15
2023-03-24T03:19:42.654Z,4.22
2023-03-24T03:22:16.979Z,4.05
2023-03-24T03:24:50.714Z,3.65
2023-03-24T03:27:27.497Z,4.70
2023-03-24T03:30:03.095Z,2.22
2023-03-24T03:32:35.189Z,4.60
2023-03-24T03:35:11.437Z,5.38
2023-03-24T03:37:49.529Z,3.42
2023-03-24T03:40:24.569Z,3.88
2023-03-24T03:42:54.691Z,5.60
2023-03-24T03:45:23.172Z,4.85
2023-03-24T03:47:53.085Z,3.20
2023-03-24T03:50:22.513Z,3.78
2023-03-24T03:52:52.386Z,3.65
2023-03-24T03:55:21.284Z,8.88
2023-03-24T03:57:49.960Z,4.10
2023-03-24T04:00:24.712Z,4.18
2023-03-24T04:03:24.294Z,2.92
2023-03-24T04:06:02.095Z,2.78
2023-03-24T04:08:41.750Z,4.85
2023-03-24T04:11:34.614Z,4.00
2023-03-24T04:14:18.532Z,3.67
2023-03-24T04:17:01.031Z,2.92
2023-03-24T04:19:43.078Z,3.95
2023-03-24T04:22:26.183Z,7.53
2023-03-24T04:24:57.934Z,3.55
2023-03-24T04:27:38.608Z,2.85
2023-03-24T04:30:16.953Z,4.95
2023-03-24T04:32:53.692Z,3.42
2023-03-24T04:35:32.153Z,4.78
2023-03-24T04:38:05.407Z,4.53
2023-03-24T04:43:15.837Z,5.03
2023-03-24T04:48:21.030Z,3.30
2023-03-24T04:50:56.276Z,3.47
2023-03-24T04:53:25.102Z,2.97
2023-03-24T04:56:08.322Z,3.13
2023-03-24T04:58:36.732Z,4.57
2023-03-24T05:01:06.037Z,2.83
2023-03-24T05:03:38.230Z,3.65
2023-03-24T05:06:07.849Z,3.20
2023-03-24T05:08:36.324Z,4.25
2023-03-24T05:11:04.523Z,2.65
2023-03-24T05:13:33.991Z,2.85
2023-03-24T05:16:02.915Z,3.58
2023-03-24T05:18:31.735Z,6.13
2023-03-24T05:21:01.659Z,4.15
2023-03-24T05:23:30.326Z,3.58
2023-03-24T05:25:58.768Z,2.85
2023-03-24T05:28:27.292Z,3.22
2023-03-24T05:30:55.848Z,2.58
2023-03-24T05:33:25.478Z,2.50
2023-03-24T05:35:54.298Z,3.65
2023-03-24T05:38:24.269Z,5.10
2023-03-24T05:40:52.647Z,2.80
2023-03-24T05:43:21.345Z,2.75
2023-03-24T05:45:50.126Z,4.20
2023-03-24T05:48:20.234Z,3.25
2023-03-24T05:50:48.418Z,3.42
2023-03-24T05:53:17.065Z,3.72
2023-03-24T05:55:47.389Z,3.75
2023-03-24T05:58:16.613Z,2.50
2023-03-24T06:00:45.463Z,4.18
2023-03-24T06:03:14.560Z,2.60
2023-03-24T06:05:46.548Z,3.47
2023-03-24T06:08:17.035Z,3.22
2023-03-24T06:10:46.874Z,3.20
2023-03-24T06:13:15.465Z,2.63
2023-03-24T06:15:47.173Z,2.22
2023-03-24T06:18:15.961Z,3.65
2023-03-24T06:20:45.716Z,2.80
2023-03-24T06:23:15.700Z,2.50
2023-03-24T06:25:45.131Z,1.55
2023-03-24T06:28:15.937Z,3.53
2023-03-24T06:30:46.931Z,2.50
2023-03-24T06:33:15.545Z,3.63
2023-03-24T06:35:45.940Z,3.22
2023-03-24T06:38:16.112Z,2.03
2023-03-24T06:40:44.550Z,2.20
2023-03-24T06:43:15.174Z,2.78
2023-03-24T06:45:45.436Z,3.80
2023-03-24T06:48:13.963Z,5.28
2023-03-24T06:50:43.460Z,4.68
2023-03-24T06:53:11.998Z,2.97
2023-03-24T06:55:40.373Z,6.40
2023-03-24T06:58:09.315Z,4.15
2023-03-24T07:00:39.973Z,5.05
2023-03-24T07:03:08.587Z,2.95
2023-03-24T07:05:39.818Z,5.00
2023-03-24T07:08:34.050Z,3.55
2023-03-24T07:10:56.424Z,3.95
2023-03-24T07:13:25.534Z,2.60
2023-03-24T07:15:55.656Z,5.90
2023-03-24T07:18:24.269Z,4.57
2023-03-24T07:20:52.525Z,3.63
2023-03-24T07:23:21.602Z,3.65
2023-03-24T07:25:51.002Z,6.30
2023-03-24T07:28:19.517Z,4.78
2023-03-24T07:30:49.263Z,3.70
2023-03-24T07:33:19.562Z,2.55
2023-03-24T07:35:48.279Z,3.20
2023-03-24T07:38:17.323Z,3.55
2023-03-24T07:40:45.706Z,4.97
2023-03-24T07:43:14.494Z,2.72
2023-03-24T07:45:43.315Z,3.20
2023-03-24T07:48:12.533Z,3.38
2023-03-24T07:50:42.216Z,4.18
2023-03-24T07:53:10.954Z,3.45
2023-03-24T07:55:40.146Z,5.30
2023-03-24T07:58:08.831Z,3.90
2023-03-24T08:00:38.547Z,1.30
2023-03-24T08:03:09.843Z,1.85
2023-03-24T08:05:38.676Z,1.70
2023-03-24T08:08:09.724Z,1.77
2023-03-24T08:10:38.108Z,2.95
2023-03-24T08:13:06.824Z,1.58
2023-03-24T08:15:35.579Z,1.42
2023-03-24T08:18:04.086Z,2.58
2023-03-24T08:20:32.777Z,3.47
2023-03-24T08:23:04.955Z,1.00
2023-03-24T08:25:36.269Z,0.90
2023-03-24T08:28:04.856Z,1.45
2023-03-24T08:30:33.878Z,2.33
2023-03-24T08:33:04.661Z,0.98
2023-03-24T08:35:39.389Z,2.97
2023-03-24T08:38:09.878Z,1.65
2023-03-24T08:40:44.469Z,0.85
2023-03-24T08:43:17.458Z,0.93
2023-03-24T08:45:46.455Z,1.58
2023-03-24T08:48:15.834Z,1.42
2023-03-24T08:50:44.609Z,1.98
2023-03-24T08:53:12.860Z,1.63
2023-03-24T08:55:45.892Z,2.33
2023-03-24T08:58:19.744Z,1.50
2023-03-24T09:00:49.971Z,1.55
2023-03-24T09:03:22.482Z,2.33
2023-03-24T09:05:51.234Z,2.50
2023-03-24T09:08:20.809Z,1.25
2023-03-24T09:10:52.618Z,1.30
2023-03-24T09:13:22.854Z,3.13
2023-03-24T09:15:53.922Z,1.15
2023-03-24T09:18:23.620Z,1.33
2023-03-24T09:20:53.388Z,2.08
2023-03-24T09:23:22.228Z,2.60
2023-03-24T09:25:53.205Z,3.15
2023-03-24T09:28:21.632Z,3.58
2023-03-24T09:30:50.421Z,2.83
2023-03-24T09:33:19.523Z,1.73
2023-03-24T09:35:54.443Z,1.33
2023-03-24T09:38:22.669Z,2.22
2023-03-24T09:40:58.003Z,4.10
2023-03-24T09:43:32.634Z,2.60
2023-03-24T09:46:03.169Z,1.92
2023-03-24T09:48:38.021Z,1.52
2023-03-24T09:51:11.707Z,1.75
2023-03-24T09:53:48.403Z,2.42
2023-03-24T09:56:22.589Z,2.70
2023-03-24T09:59:00.692Z,4.15
2023-03-24T10:01:29.745Z,2.70
2023-03-24T10:04:00.777Z,1.85
2023-03-24T10:06:32.663Z,1.95
2023-03-24T10:09:17.535Z,2.03
2023-03-24T10:11:57.004Z,2.95
2023-03-24T10:14:39.779Z,2.17
2023-03-24T10:17:19.988Z,2.53
2023-03-24T10:19:59.908Z,2.47
2023-03-24T10:22:34.032Z,3.65
2023-03-24T10:25:14.023Z,2.75
2023-03-24T10:27:48.894Z,2.10
2023-03-24T10:30:20.793Z,1.45
2023-03-24T10:32:50.014Z,1.65
2023-03-24T10:35:23.047Z,2.00
2023-03-24T10:37:53.482Z,1.40
2023-03-24T10:40:25.589Z,1.17
2023-03-24T10:43:06.987Z,0.93
2023-03-24T10:45:41.488Z,0.95
2023-03-24T10:48:10.704Z,2.03
2023-03-24T10:50:45.010Z,1.33
2023-03-24T10:53:23.188Z,1.40
2023-03-24T10:55:52.373Z,1.60
2023-03-24T10:58:32.042Z,2.00
2023-03-24T11:01:02.320Z,2.03
2023-03-24T11:03:34.052Z,1.63
2023-03-24T11:06:04.757Z,3.65
2023-03-24T11:08:37.518Z,4.30
2023-03-24T11:11:18.137Z,1.67
2023-03-24T11:13:59.059Z,3.28
2023-03-24T11:16:33.304Z,5.57
2023-03-24T11:19:03.914Z,9.23
2023-03-24T11:21:34.444Z,2.25
2023-03-24T11:24:05.199Z,1.83
2023-03-24T11:26:36.560Z,1.38
2023-03-24T11:29:10.012Z,4.75
2023-03-24T11:31:41.468Z,1.45
2023-03-24T11:34:14.138Z,1.42
2023-03-24T11:36:50.025Z,2.35
2023-03-24T11:39:24.535Z,4.53
2023-03-24T11:42:15.832Z,2.20
2023-03-24T11:44:50.714Z,2.33
2023-03-24T11:47:25.233Z,1.23
2023-03-24T11:50:03.159Z,1.35
2023-03-24T11:52:39.775Z,1.80
2023-03-24T11:55:18.080Z,2.38
2023-03-24T11:57:54.137Z,0.45
2023-03-24T12:00:30.067Z,1.17
2023-03-24T12:03:26.839Z,1.30
2023-03-24T12:06:05.172Z,1.75
2023-03-24T12:08:46.427Z,1.52
2023-03-24T12:11:19.653Z,1.50
2023-03-24T12:13:52.512Z,3.67
2023-03-24T12:16:43.487Z,1.20
2023-03-24T12:19:38.107Z,1.33
2023-03-24T12:22:21.637Z,3.30
2023-03-24T12:25:09.589Z,3.50
2023-03-24T12:27:47.846Z,1.55
2023-03-24T12:30:23.871Z,2.55
2023-03-24T12:33:01.571Z,1.63
2023-03-24T12:35:57.892Z,1.75
2023-03-24T12:38:40.937Z,1.15
2023-03-24T12:41:26.313Z,1.88
2023-03-24T12:44:11.719Z,5.43
2023-03-24T12:46:48.948Z,1.95
2023-03-24T12:49:33.825Z,2.22
2023-03-24T12:52:18.481Z,1.58
2023-03-24T12:54:54.836Z,1.85
2023-03-24T12:57:27.830Z,1.73
2023-03-24T13:00:07.376Z,1.35
2023-03-24T13:02:41.561Z,1.88
2023-03-24T13:05:21.543Z,1.83
2023-03-24T13:07:54.845Z,1.13
2023-03-24T13:10:28.345Z,0.95
2023-03-24T13:13:01.215Z,4.38
2023-03-24T13:15:35.333Z,1.35
2023-03-24T13:18:16.679Z,1.15
2023-03-24T13:20:49.911Z,0.47
2023-03-24T13:23:55.232Z,1.37
2023-03-24T13:26:32.425Z,0.88
2023-03-24T13:29:13.607Z,1.38
2023-03-24T13:31:45.932Z,1.77
2023-03-24T13:34:25.732Z,1.25
2023-03-24T13:37:01.793Z,0.65
2023-03-24T13:39:32.028Z,2.05
2023-03-24T13:42:01.204Z,0.70
2023-03-24T13:44:38.762Z,0.88
2023-03-24T13:47:13.729Z,2.30
2023-03-24T13:49:44.567Z,2.60
2023-03-24T13:52:29.643Z,2.17
2023-03-24T13:55:01.550Z,2.13
2023-03-24T13:57:31.721Z,2.22
2023-03-24T14:00:17.888Z,3.05
2023-03-24T14:02:50.077Z,2.35
2023-03-24T14:05:56.635Z,1.65
2023-03-24T14:08:44.894Z,3.05
2023-03-24T14:11:51.702Z,1.35
2023-03-24T14:14:22.844Z,2.80
2023-03-24T14:16:53.633Z,2.42
2023-03-24T14:19:27.564Z,2.70
2023-03-24T14:22:17.672Z,3.53
2023-03-24T14:24:58.477Z,1.40
2023-03-24T14:27:37.089Z,1.30
2023-03-24T14:30:14.859Z,3.67
2023-03-24T14:32:48.208Z,3.10
2023-03-24T14:35:24.234Z,1.23
2023-03-24T14:37:56.292Z,0.70
2023-03-24T14:40:32.254Z,0.70
2023-03-24T14:43:23.677Z,0.98
2023-03-24T14:45:58.333Z,1.17
2023-03-24T14:48:45.269Z,1.48
2023-03-24T14:51:37.496Z,0.88
2023-03-24T14:54:09.136Z,1.55
2023-03-24T14:56:43.692Z,4.40
2023-03-24T14:59:22.855Z,1.77
2023-03-24T15:01:56.963Z,1.35
2023-03-24T15:04:26.244Z,2.70
2023-03-24T15:06:54.884Z,3.85
2023-03-24T15:09:23.410Z,3.58
2023-03-24T15:11:54.090Z,1.92
2023-03-24T15:14:25.523Z,0.82
2023-03-24T15:16:58.898Z,1.00
2023-03-24T15:19:29.821Z,0.68
2023-03-24T15:22:03.235Z,1.95
2023-03-24T15:24:35.601Z,4.30
2023-03-24T15:27:24.806Z,3.13
2023-03-24T15:29:57.928Z,2.38
2023-03-24T15:32:32.572Z,2.13
2023-03-24T15:35:06.029Z,0.90
2023-03-24T15:37:39.217Z,0.50
2023-03-24T15:40:24.308Z,1.38
2023-03-24T15:42:54.874Z,1.87
2023-03-24T15:45:32.825Z,1.92
2023-03-24T15:48:06.636Z,0.93
2023-03-24T15:50:37.752Z,2.08
2023-03-24T15:53:08.388Z,2.05
2023-03-24T15:55:38.491Z,1.85
2023-03-24T15:58:23.476Z,1.00
2023-03-24T16:00:55.190Z,1.27
2023-03-24T16:03:26.877Z,1.25
2023-03-24T16:05:57.253Z,2.47
2023-03-24T16:08:36.381Z,1.17
2023-03-24T16:11:11.487Z,0.88
2023-03-24T16:13:42.352Z,1.77
2023-03-24T16:16:25.263Z,0.73
2023-03-24T16:18:53.853Z,2.67
2023-03-24T16:21:24.789Z,0.90
2023-03-24T16:23:54.585Z,1.50
2023-03-24T16:26:24.576Z,3.88
2023-03-24T16:28:57.776Z,1.23
2023-03-24T16:31:29.025Z,0.80
2023-03-24T16:33:58.135Z,0.70
2023-03-24T16:36:28.061Z,2.15
2023-03-24T16:38:58.302Z,1.80
2023-03-24T16:41:26.895Z,2.45
2023-03-24T16:43:58.294Z,3.60
2023-03-24T16:46:33.122Z,5.10
2023-03-24T16:49:02.895Z,2.67
2023-03-24T16:51:31.548Z,1.65
2023-03-24T16:54:01.019Z,4.25
2023-03-24T16:56:29.743Z,1.73
2023-03-24T16:59:00.899Z,2.03
2023-03-24T17:01:33.820Z,5.18
2023-03-24T17:04:04.175Z,1.37
2023-03-24T17:06:34.282Z,1.73
2023-03-24T17:09:04.237Z,2.47
2023-03-24T17:11:35.751Z,2.72
2023-03-24T17:14:08.998Z,2.45
2023-03-24T17:16:39.073Z,4.97
2023-03-24T17:19:07.968Z,1.55
2023-03-24T17:21:40.290Z,1.90
2023-03-24T17:24:11.020Z,2.72
2023-03-24T17:26:39.555Z,1.15
2023-03-24T17:29:11.591Z,2.63
2023-03-24T17:31:40.554Z,2.40
2023-03-24T17:34:21.642Z,1.27
2023-03-24T17:36:51.452Z,3.13
2023-03-24T17:39:21.339Z,1.38
2023-03-24T17:41:49.981Z,3.95
2023-03-24T17:44:21.123Z,1.75
2023-03-24T17:46:49.818Z,2.13
2023-03-24T17:49:18.001Z,2.30
2023-03-24T17:51:46.499Z,2.72
2023-03-24T17:54:16.851Z,2.97
2023-03-24T17:56:45.693Z,0.73
2023-03-24T17:59:14.036Z,1.38
2023-03-24T18:01:44.310Z,2.17
2023-03-24T18:04:12.688Z,0.85
2023-03-24T18:06:42.162Z,1.25
2023-03-24T18:09:10.710Z,2.30
2023-03-24T18:11:39.280Z,2.13
2023-03-24T18:14:09.342Z,1.80
2023-03-24T18:16:39.797Z,6.05
2023-03-24T18:19:09.673Z,2.83
2023-03-24T18:21:40.208Z,2.20
2023-03-24T18:24:09.913Z,2.78
2023-03-24T18:26:39.849Z,1.58
2023-03-24T18:29:08.893Z,1.00
2023-03-24T18:31:37.268Z,2.53
2023-03-24T18:34:05.957Z,3.08
2023-03-24T18:36:36.741Z,1.55
2023-03-24T18:39:07.728Z,3.90
2023-03-24T18:41:39.195Z,1.75
2023-03-24T18:44:09.420Z,5.70
2023-03-24T18:46:38.541Z,2.42
2023-03-24T18:49:07.510Z,3.40
2023-03-24T18:51:37.596Z,1.85
2023-03-24T18:54:06.884Z,3.15
2023-03-24T18:56:36.776Z,1.80
2023-03-24T18:59:05.388Z,4.63
2023-03-24T19:01:35.971Z,3.22
2023-03-24T19:04:04.561Z,2.42
2023-03-24T19:06:34.509Z,2.75
2023-03-24T19:09:05.879Z,2.92
2023-03-24T19:11:34.473Z,3.67
2023-03-24T19:14:03.065Z,1.85
2023-03-24T19:16:31.731Z,3.30
2023-03-24T19:19:00.296Z,3.17
2023-03-24T19:21:29.572Z,2.60
2023-03-24T19:23:58.372Z,2.20
2023-03-24T19:26:28.126Z,2.80
2023-03-24T19:28:57.846Z,1.27
2023-03-24T19:31:26.331Z,3.85
2023-03-24T19:33:55.149Z,2.13
2023-03-24T19:36:25.549Z,2.10
2023-03-24T19:38:54.552Z,1.85
2023-03-24T19:41:26.633Z,2.40
2023-03-24T19:43:56.287Z,2.15
2023-03-24T19:46:24.733Z,1.90
2023-03-24T19:48:53.393Z,4.32
2023-03-24T19:51:22.255Z,3.83
2023-03-24T19:53:50.743Z,1.60
2023-03-24T19:56:20.945Z,3.22
2023-03-24T19:58:49.373Z,1.80
2023-03-24T20:01:20.457Z,5.40
2023-03-24T20:03:49.396Z,3.42
2023-03-24T20:06:19.642Z,2.40
2023-03-24T20:08:49.345Z,2.72
2023-03-24T20:11:18.776Z,4.65
2023-03-24T20:13:47.378Z,5.68
2023-03-24T20:16:16.486Z,2.28
2023-03-24T20:18:46.707Z,1.50
2023-03-24T20:21:22.650Z,1.80
2023-03-24T20:23:51.641Z,5.05
2023-03-24T20:26:20.926Z,3.13
2023-03-24T20:28:51.565Z,2.70
2023-03-24T20:31:20.198Z,5.05
2023-03-24T20:33:50.761Z,1.52
2023-03-24T20:36:19.400Z,2.55
2023-03-24T20:38:47.996Z,2.05
2023-03-24T20:41:16.761Z,3.22
2023-03-24T20:43:45.091Z,2.08
2023-03-24T20:46:17.954Z,2.55
2023-03-24T20:48:46.964Z,4.45
2023-03-24T20:51:17.067Z,2.58
2023-03-24T20:53:49.776Z,7.78
2023-03-24T20:56:19.709Z,2.53
2023-03-24T20:58:48.073Z,2.75
2023-03-24T21:01:20.861Z,1.83
2023-03-24T21:03:49.534Z,2.58
2023-03-24T21:06:20.312Z,2.30
2023-03-24T21:08:49.683Z,1.58
2023-03-24T21:11:18.332Z,2.33
2023-03-24T21:13:46.664Z,3.20
2023-03-24T21:16:15.146Z,1.77
2023-03-24T21:18:44.255Z,1.73
2023-03-24T21:21:13.512Z,4.97
2023-03-24T21:23:44.440Z,2.33
2023-03-24T21:26:15.957Z,3.35
2023-03-24T21:28:45.032Z,1.83
2023-03-24T21:31:20.010Z,2.15
2023-03-24T21:33:48.901Z,2.25
2023-03-24T21:36:18.048Z,1.98
2023-03-24T21:38:50.063Z,2.63
2023-03-24T21:41:19.037Z,2.53
2023-03-24T21:43:51.430Z,2.35
2023-03-24T21:46:21.961Z,7.75
2023-03-24T21:48:55.828Z,7.30
2023-03-24T21:51:26.245Z,5.30
2023-03-24T21:53:57.024Z,5.35
2023-03-24T21:56:25.270Z,3.53
2023-03-24T21:58:55.521Z,2.28
2023-03-24T22:01:24.553Z,2.13
2023-03-24T22:03:54.936Z,3.65
2023-03-24T22:06:24.255Z,2.85
2023-03-24T22:08:53.427Z,4.10
2023-03-24T22:11:25.015Z,2.85
2023-03-24T22:13:53.631Z,3.35
2023-03-24T22:16:22.474Z,18.38
2023-03-24T22:18:53.125Z,10.75
2023-03-24T22:21:21.942Z,22.95
2023-03-24T22:23:50.411Z,93.43
2023-03-24T22:26:19.403Z,22.95
2023-03-24T22:28:50.761Z,48.72
2023-03-24T22:31:23.186Z,13.07
2023-03-24T22:33:51.775Z,7.65
2023-03-24T22:36:20.686Z,21.38
2023-03-24T22:38:49.066Z,31.52
2023-03-24T22:41:17.503Z,56.42
2023-03-24T22:43:46.272Z,129.30
2023-03-24T22:46:16.576Z,35.00
2023-03-24T22:48:45.209Z,17.58
2023-03-24T22:51:19.310Z,21.85
2023-03-24T22:53:49.386Z,20.00
2023-03-24T22:56:18.189Z,79.70
2023-03-24T22:58:46.460Z,38.03
2023-03-24T23:01:17.473Z,100.95
2023-03-24T23:03:48.041Z,133.95
2023-03-24T23:06:16.838Z,36.05
2023-03-24T23:08:45.176Z,82.63
2023-03-24T23:11:14.446Z,97.35
2023-03-24T23:13:43.022Z,6.45
2023-03-24T23:16:11.939Z,82.20
2023-03-24T23:18:41.777Z,166.38
2023-03-24T23:21:12.975Z,19.55
2023-03-24T23:23:43.863Z,10.25
2023-03-24T23:26:26.461Z,10.32
2023-03-24T23:28:55.676Z,1.50
2023-03-24T23:31:26.487Z,217.00
2023-03-24T23:33:58.595Z,71.32
2023-03-24T23:36:28.623Z,25.50
2023-03-24T23:38:57.551Z,53.53
2023-03-24T23:41:26.308Z,7.35
2023-03-24T23:43:55.321Z,4.82
2023-03-24T23:46:24.636Z,8.18
2023-03-24T23:48:53.038Z,49.13
2023-03-24T23:51:23.801Z,223.55
2023-03-24T23:53:53.206Z,373.05
2023-03-24T23:56:23.107Z,186.60
2023-03-24T23:58:52.284Z,76.50
